Zurich, Kansas
Current Conditions -  °F | °C
As of 9:55 PM on Sunday 23 Nov 2014 (Local Time) from KHYS Reporting Station
Clear Clear  
Wind Chill: 26°   Ceiling: Unl
Heat Index: 34°   Visibility: 10mi
Dew Point: 16°   Wind: 10mph
Humidity: 48%   Direction: 300°WNW
Pressure: 29.74"   Gusts: NA
Location:  39.2151°N, 99.302°W
Report Text: KHYS 240355Z AUTO 30009KT 10SM CLR 01/M09 A2974 RMK AO1
Loading
Personal Weather Stations






























Interactive Weather Map New forecast layout! Learn more

10-Day Weather Forecast

Advertisements
Track Severe Weather on mobile